sensor_id;sensor_type;location;lat;lon;timestamp;temperature;humidity
57434;DHT22;43277;52.672;6.984;2022-07-29T00:00:12;15.40;99.90
57434;DHT22;43277;52.672;6.984;2022-07-29T00:02:38;15.40;99.90
57434;DHT22;43277;52.672;6.984;2022-07-29T00:05:04;15.40;99.90
57434;DHT22;43277;52.672;6.984;2022-07-29T00:07:30;15.40;99.90
57434;DHT22;43277;52.672;6.984;2022-07-29T00:09:56;15.40;99.90
57434;DHT22;43277;52.672;6.984;2022-07-29T00:12:23;15.40;99.90
57434;DHT22;43277;52.672;6.984;2022-07-29T00:14:49;15.30;99.90
57434;DHT22;43277;52.672;6.984;2022-07-29T00:17:15;15.30;99.90
57434;DHT22;43277;52.672;6.984;2022-07-29T00:19:41;15.30;99.90
57434;DHT22;43277;52.672;6.984;2022-07-29T00:22:06;15.20;99.90
57434;DHT22;43277;52.672;6.984;2022-07-29T00:24:32;15.20;99.90
57434;DHT22;43277;52.672;6.984;2022-07-29T00:26:57;15.20;99.90
57434;DHT22;43277;52.672;6.984;2022-07-29T00:29:23;15.20;99.90
57434;DHT22;43277;52.672;6.984;2022-07-29T00:31:49;15.20;99.90
57434;DHT22;43277;52.672;6.984;2022-07-29T00:34:15;15.20;99.90
57434;DHT22;43277;52.672;6.984;2022-07-29T00:36:59;15.20;99.90
57434;DHT22;43277;52.672;6.984;2022-07-29T00:39:24;15.20;99.90
57434;DHT22;43277;52.672;6.984;2022-07-29T00:41:50;15.20;99.90
57434;DHT22;43277;52.672;6.984;2022-07-29T00:44:16;15.20;99.90
57434;DHT22;43277;52.672;6.984;2022-07-29T00:46:41;15.10;99.90
57434;DHT22;43277;52.672;6.984;2022-07-29T00:49:07;15.10;99.90
57434;DHT22;43277;52.672;6.984;2022-07-29T00:51:35;15.10;99.90
57434;DHT22;43277;52.672;6.984;2022-07-29T00:54:02;15.10;99.90
57434;DHT22;43277;52.672;6.984;2022-07-29T00:56:30;15.10;99.90
57434;DHT22;43277;52.672;6.984;2022-07-29T00:58:56;15.10;99.90
57434;DHT22;43277;52.672;6.984;2022-07-29T01:01:22;15.10;99.90
57434;DHT22;43277;52.672;6.984;2022-07-29T01:03:48;15.10;99.90
57434;DHT22;43277;52.672;6.984;2022-07-29T01:06:16;15.10;99.90
57434;DHT22;43277;52.672;6.984;2022-07-29T01:08:42;15.10;99.90
57434;DHT22;43277;52.672;6.984;2022-07-29T01:11:09;15.00;99.90
57434;DHT22;43277;52.672;6.984;2022-07-29T01:13:34;15.10;99.90
57434;DHT22;43277;52.672;6.984;2022-07-29T01:16:13;15.10;99.90
57434;DHT22;43277;52.672;6.984;2022-07-29T01:18:44;15.00;99.90
57434;DHT22;43277;52.672;6.984;2022-07-29T01:24:08;15.00;99.90
57434;DHT22;43277;52.672;6.984;2022-07-29T01:26:46;15.00;99.90
57434;DHT22;43277;52.672;6.984;2022-07-29T01:32:10;14.90;99.90
57434;DHT22;43277;52.672;6.984;2022-07-29T01:34:56;15.00;99.90
57434;DHT22;43277;52.672;6.984;2022-07-29T01:37:43;15.00;99.90
57434;DHT22;43277;52.672;6.984;2022-07-29T01:40:38;15.00;99.90
57434;DHT22;43277;52.672;6.984;2022-07-29T01:43:10;15.00;99.90
57434;DHT22;43277;52.672;6.984;2022-07-29T01:45:59;14.90;99.90
57434;DHT22;43277;52.672;6.984;2022-07-29T01:51:18;14.90;99.90
57434;DHT22;43277;52.672;6.984;2022-07-29T01:53:51;14.90;99.90
57434;DHT22;43277;52.672;6.984;2022-07-29T01:56:20;14.90;99.90
57434;DHT22;43277;52.672;6.984;2022-07-29T01:58:48;14.90;99.90
57434;DHT22;43277;52.672;6.984;2022-07-29T02:01:15;14.90;99.90
57434;DHT22;43277;52.672;6.984;2022-07-29T02:03:43;14.80;99.90
57434;DHT22;43277;52.672;6.984;2022-07-29T02:06:11;14.90;99.90
57434;DHT22;43277;52.672;6.984;2022-07-29T02:08:39;14.90;99.90
57434;DHT22;43277;52.672;6.984;2022-07-29T02:11:07;14.90;99.90
57434;DHT22;43277;52.672;6.984;2022-07-29T02:13:36;14.90;99.90
57434;DHT22;43277;52.672;6.984;2022-07-29T02:16:05;14.90;99.90
57434;DHT22;43277;52.672;6.984;2022-07-29T02:18:32;14.80;99.90
57434;DHT22;43277;52.672;6.984;2022-07-29T02:20:59;14.90;99.90
57434;DHT22;43277;52.672;6.984;2022-07-29T02:23:26;14.90;99.90
57434;DHT22;43277;52.672;6.984;2022-07-29T02:25:57;14.80;99.90
57434;DHT22;43277;52.672;6.984;2022-07-29T02:28:26;14.90;99.90
57434;DHT22;43277;52.672;6.984;2022-07-29T02:30:54;14.90;99.90
57434;DHT22;43277;52.672;6.984;2022-07-29T02:33:21;14.80;99.90
57434;DHT22;43277;52.672;6.984;2022-07-29T02:35:48;14.80;99.90
57434;DHT22;43277;52.672;6.984;2022-07-29T02:38:16;14.90;99.90
57434;DHT22;43277;52.672;6.984;2022-07-29T02:41:05;14.90;99.90
57434;DHT22;43277;52.672;6.984;2022-07-29T02:43:34;14.90;99.90
57434;DHT22;43277;52.672;6.984;2022-07-29T02:46:03;14.80;99.90
57434;DHT22;43277;52.672;6.984;2022-07-29T02:48:37;14.80;99.90
57434;DHT22;43277;52.672;6.984;2022-07-29T02:51:10;14.80;99.90
57434;DHT22;43277;52.672;6.984;2022-07-29T02:53:38;14.80;99.90
57434;DHT22;43277;52.672;6.984;2022-07-29T02:56:07;14.80;99.90
57434;DHT22;43277;52.672;6.984;2022-07-29T02:58:38;14.70;99.90
57434;DHT22;43277;52.672;6.984;2022-07-29T03:01:10;14.70;99.90
57434;DHT22;43277;52.672;6.984;2022-07-29T03:03:37;14.60;99.90
57434;DHT22;43277;52.672;6.984;2022-07-29T03:06:05;14.70;99.90
57434;DHT22;43277;52.672;6.984;2022-07-29T03:08:32;14.70;99.90
57434;DHT22;43277;52.672;6.984;2022-07-29T03:10:58;14.70;99.90
57434;DHT22;43277;52.672;6.984;2022-07-29T03:13:25;14.70;99.90
57434;DHT22;43277;52.672;6.984;2022-07-29T03:15:52;14.70;99.90
57434;DHT22;43277;52.672;6.984;2022-07-29T03:18:19;14.70;99.90
57434;DHT22;43277;52.672;6.984;2022-07-29T03:20:44;14.60;99.90
57434;DHT22;43277;52.672;6.984;2022-07-29T03:23:10;14.70;99.90
57434;DHT22;43277;52.672;6.984;2022-07-29T03:25:36;14.60;99.90
57434;DHT22;43277;52.672;6.984;2022-07-29T03:28:01;14.60;99.90
57434;DHT22;43277;52.672;6.984;2022-07-29T03:30:27;14.60;99.90
57434;DHT22;43277;52.672;6.984;2022-07-29T03:32:53;14.60;99.90
57434;DHT22;43277;52.672;6.984;2022-07-29T03:35:20;14.60;99.90
57434;DHT22;43277;52.672;6.984;2022-07-29T03:37:45;14.50;99.90
57434;DHT22;43277;52.672;6.984;2022-07-29T03:40:25;14.50;99.90
57434;DHT22;43277;52.672;6.984;2022-07-29T03:43:02;14.50;99.90
57434;DHT22;43277;52.672;6.984;2022-07-29T03:45:29;14.50;99.90
57434;DHT22;43277;52.672;6.984;2022-07-29T03:48:01;14.50;99.90
57434;DHT22;43277;52.672;6.984;2022-07-29T03:50:28;14.50;99.90
57434;DHT22;43277;52.672;6.984;2022-07-29T03:52:55;14.50;99.90
57434;DHT22;43277;52.672;6.984;2022-07-29T03:55:21;14.50;99.90
57434;DHT22;43277;52.672;6.984;2022-07-29T03:57:48;14.50;99.90
57434;DHT22;43277;52.672;6.984;2022-07-29T04:00:15;14.50;99.90
57434;DHT22;43277;52.672;6.984;2022-07-29T04:02:41;14.50;99.90
57434;DHT22;43277;52.672;6.984;2022-07-29T04:05:13;14.50;99.90
57434;DHT22;43277;52.672;6.984;2022-07-29T04:07:40;14.50;99.90
57434;DHT22;43277;52.672;6.984;2022-07-29T04:10:06;14.50;99.90
57434;DHT22;43277;52.672;6.984;2022-07-29T04:12:32;14.50;99.90
57434;DHT22;43277;52.672;6.984;2022-07-29T04:14:58;14.50;99.90
57434;DHT22;43277;52.672;6.984;2022-07-29T04:17:23;14.40;99.90
57434;DHT22;43277;52.672;6.984;2022-07-29T04:19:49;14.40;99.90
57434;DHT22;43277;52.672;6.984;2022-07-29T04:22:14;14.50;99.90
57434;DHT22;43277;52.672;6.984;2022-07-29T04:24:40;14.40;99.90
57434;DHT22;43277;52.672;6.984;2022-07-29T04:27:05;14.40;99.90
57434;DHT22;43277;52.672;6.984;2022-07-29T04:29:31;14.40;99.90
57434;DHT22;43277;52.672;6.984;2022-07-29T04:31:57;14.50;99.90
57434;DHT22;43277;52.672;6.984;2022-07-29T04:34:22;14.40;99.90
57434;DHT22;43277;52.672;6.984;2022-07-29T04:36:48;14.40;99.90
57434;DHT22;43277;52.672;6.984;2022-07-29T04:39:13;14.40;99.90
57434;DHT22;43277;52.672;6.984;2022-07-29T04:41:39;14.50;99.90
57434;DHT22;43277;52.672;6.984;2022-07-29T04:44:04;14.40;99.90
57434;DHT22;43277;52.672;6.984;2022-07-29T04:46:31;14.50;99.90
57434;DHT22;43277;52.672;6.984;2022-07-29T04:48:56;14.50;99.90
57434;DHT22;43277;52.672;6.984;2022-07-29T04:51:22;14.50;99.90
57434;DHT22;43277;52.672;6.984;2022-07-29T04:53:48;14.50;99.90
57434;DHT22;43277;52.672;6.984;2022-07-29T04:56:13;14.50;99.90
57434;DHT22;43277;52.672;6.984;2022-07-29T04:58:39;14.40;99.90
57434;DHT22;43277;52.672;6.984;2022-07-29T05:01:04;14.50;99.90
57434;DHT22;43277;52.672;6.984;2022-07-29T05:03:30;14.50;99.90
57434;DHT22;43277;52.672;6.984;2022-07-29T05:05:56;14.50;99.90
57434;DHT22;43277;52.672;6.984;2022-07-29T05:08:21;14.60;99.90
57434;DHT22;43277;52.672;6.984;2022-07-29T05:10:47;14.50;99.90
57434;DHT22;43277;52.672;6.984;2022-07-29T05:13:13;14.60;99.90
57434;DHT22;43277;52.672;6.984;2022-07-29T05:15:38;14.60;99.90
57434;DHT22;43277;52.672;6.984;2022-07-29T05:18:04;14.60;99.90
57434;DHT22;43277;52.672;6.984;2022-07-29T05:20:30;14.70;99.90
57434;DHT22;43277;52.672;6.984;2022-07-29T05:22:59;14.70;99.90
57434;DHT22;43277;52.672;6.984;2022-07-29T05:25:26;14.70;99.90
57434;DHT22;43277;52.672;6.984;2022-07-29T05:27:52;14.80;99.90
57434;DHT22;43277;52.672;6.984;2022-07-29T05:30:18;14.80;99.90
57434;DHT22;43277;52.672;6.984;2022-07-29T05:32:44;14.90;99.90
57434;DHT22;43277;52.672;6.984;2022-07-29T05:35:11;15.00;99.90
57434;DHT22;43277;52.672;6.984;2022-07-29T05:37:37;15.00;99.90
57434;DHT22;43277;52.672;6.984;2022-07-29T05:40:04;15.00;99.90
57434;DHT22;43277;52.672;6.984;2022-07-29T05:42:30;15.10;99.90
57434;DHT22;43277;52.672;6.984;2022-07-29T05:44:55;15.10;99.90
57434;DHT22;43277;52.672;6.984;2022-07-29T05:47:22;15.20;99.90
57434;DHT22;43277;52.672;6.984;2022-07-29T05:49:48;15.20;99.90
57434;DHT22;43277;52.672;6.984;2022-07-29T05:52:14;15.30;99.90
57434;DHT22;43277;52.672;6.984;2022-07-29T05:54:40;15.30;99.90
57434;DHT22;43277;52.672;6.984;2022-07-29T05:57:05;15.30;99.90
57434;DHT22;43277;52.672;6.984;2022-07-29T05:59:35;15.40;99.90
57434;DHT22;43277;52.672;6.984;2022-07-29T06:02:01;15.50;99.90
57434;DHT22;43277;52.672;6.984;2022-07-29T06:04:28;15.50;99.90
57434;DHT22;43277;52.672;6.984;2022-07-29T06:06:53;15.60;99.90
57434;DHT22;43277;52.672;6.984;2022-07-29T06:09:19;15.70;99.90
57434;DHT22;43277;52.672;6.984;2022-07-29T06:11:44;15.80;99.90
57434;DHT22;43277;52.672;6.984;2022-07-29T06:14:10;15.90;99.90
57434;DHT22;43277;52.672;6.984;2022-07-29T06:16:36;16.00;99.90
57434;DHT22;43277;52.672;6.984;2022-07-29T06:19:02;16.10;99.90
57434;DHT22;43277;52.672;6.984;2022-07-29T06:21:28;16.20;99.90
57434;DHT22;43277;52.672;6.984;2022-07-29T06:23:53;16.30;99.90
57434;DHT22;43277;52.672;6.984;2022-07-29T06:26:19;16.30;99.90
57434;DHT22;43277;52.672;6.984;2022-07-29T06:28:44;16.30;99.90
57434;DHT22;43277;52.672;6.984;2022-07-29T06:31:10;16.40;99.90
57434;DHT22;43277;52.672;6.984;2022-07-29T06:33:35;16.50;99.90
57434;DHT22;43277;52.672;6.984;2022-07-29T06:36:04;16.60;99.90
57434;DHT22;43277;52.672;6.984;2022-07-29T06:38:30;16.60;99.90
57434;DHT22;43277;52.672;6.984;2022-07-29T06:40:56;16.70;99.90
57434;DHT22;43277;52.672;6.984;2022-07-29T06:43:33;16.70;99.90
57434;DHT22;43277;52.672;6.984;2022-07-29T06:46:04;16.70;99.90
57434;DHT22;43277;52.672;6.984;2022-07-29T06:48:31;16.70;99.90
57434;DHT22;43277;52.672;6.984;2022-07-29T06:50:57;16.80;99.90
57434;DHT22;43277;52.672;6.984;2022-07-29T06:53:23;16.80;99.90
57434;DHT22;43277;52.672;6.984;2022-07-29T06:55:49;16.90;99.90
57434;DHT22;43277;52.672;6.984;2022-07-29T06:58:15;17.00;99.90
57434;DHT22;43277;52.672;6.984;2022-07-29T07:00:43;17.00;99.90
57434;DHT22;43277;52.672;6.984;2022-07-29T07:03:10;17.00;99.90
57434;DHT22;43277;52.672;6.984;2022-07-29T07:05:35;17.10;99.90
57434;DHT22;43277;52.672;6.984;2022-07-29T07:08:01;17.10;99.90
57434;DHT22;43277;52.672;6.984;2022-07-29T07:10:27;17.20;99.90
57434;DHT22;43277;52.672;6.984;2022-07-29T07:12:52;17.20;99.90
57434;DHT22;43277;52.672;6.984;2022-07-29T07:15:18;17.30;99.90
57434;DHT22;43277;52.672;6.984;2022-07-29T07:17:48;17.30;99.90
57434;DHT22;43277;52.672;6.984;2022-07-29T07:20:14;17.50;99.90
57434;DHT22;43277;52.672;6.984;2022-07-29T07:22:40;17.40;99.90
57434;DHT22;43277;52.672;6.984;2022-07-29T07:25:06;17.50;99.90
57434;DHT22;43277;52.672;6.984;2022-07-29T07:27:32;17.50;99.90
57434;DHT22;43277;52.672;6.984;2022-07-29T07:29:57;17.60;99.90
57434;DHT22;43277;52.672;6.984;2022-07-29T07:32:23;17.70;99.90
57434;DHT22;43277;52.672;6.984;2022-07-29T07:34:49;17.70;99.90
57434;DHT22;43277;52.672;6.984;2022-07-29T07:37:14;17.70;99.90
57434;DHT22;43277;52.672;6.984;2022-07-29T07:39:41;17.80;99.90
57434;DHT22;43277;52.672;6.984;2022-07-29T07:42:06;18.00;99.90
57434;DHT22;43277;52.672;6.984;2022-07-29T07:44:32;18.10;99.90
57434;DHT22;43277;52.672;6.984;2022-07-29T07:46:57;18.30;99.90
57434;DHT22;43277;52.672;6.984;2022-07-29T07:49:23;18.50;99.90
57434;DHT22;43277;52.672;6.984;2022-07-29T07:51:49;18.60;99.90
57434;DHT22;43277;52.672;6.984;2022-07-29T07:54:15;18.60;99.90
57434;DHT22;43277;52.672;6.984;2022-07-29T07:56:40;18.70;99.90
57434;DHT22;43277;52.672;6.984;2022-07-29T07:59:06;18.70;99.90
57434;DHT22;43277;52.672;6.984;2022-07-29T08:01:31;18.80;99.90
57434;DHT22;43277;52.672;6.984;2022-07-29T08:03:57;18.80;99.90
57434;DHT22;43277;52.672;6.984;2022-07-29T08:06:22;18.80;99.90
57434;DHT22;43277;52.672;6.984;2022-07-29T08:08:50;18.90;99.90
57434;DHT22;43277;52.672;6.984;2022-07-29T08:11:16;18.90;99.90
57434;DHT22;43277;52.672;6.984;2022-07-29T08:13:42;18.90;99.90
57434;DHT22;43277;52.672;6.984;2022-07-29T08:16:08;18.90;99.90
57434;DHT22;43277;52.672;6.984;2022-07-29T08:18:38;18.90;99.90
57434;DHT22;43277;52.672;6.984;2022-07-29T08:21:04;18.90;99.90
57434;DHT22;43277;52.672;6.984;2022-07-29T08:23:30;18.90;99.90
57434;DHT22;43277;52.672;6.984;2022-07-29T08:26:07;18.90;99.90
57434;DHT22;43277;52.672;6.984;2022-07-29T08:28:37;18.80;99.90
57434;DHT22;43277;52.672;6.984;2022-07-29T08:31:03;18.80;99.90
57434;DHT22;43277;52.672;6.984;2022-07-29T08:33:29;18.80;99.90
57434;DHT22;43277;52.672;6.984;2022-07-29T08:35:54;18.80;99.90
57434;DHT22;43277;52.672;6.984;2022-07-29T08:38:20;18.80;99.90
57434;DHT22;43277;52.672;6.984;2022-07-29T08:40:46;18.80;99.90
57434;DHT22;43277;52.672;6.984;2022-07-29T08:43:11;18.80;99.90
57434;DHT22;43277;52.672;6.984;2022-07-29T08:45:49;18.90;99.90
57434;DHT22;43277;52.672;6.984;2022-07-29T08:48:20;19.00;99.90
57434;DHT22;43277;52.672;6.984;2022-07-29T08:50:46;19.10;99.90
57434;DHT22;43277;52.672;6.984;2022-07-29T08:53:14;19.20;99.90
57434;DHT22;43277;52.672;6.984;2022-07-29T08:55:44;19.40;99.90
57434;DHT22;43277;52.672;6.984;2022-07-29T08:58:10;19.50;99.90
57434;DHT22;43277;52.672;6.984;2022-07-29T09:00:38;19.80;99.90
57434;DHT22;43277;52.672;6.984;2022-07-29T09:03:06;20.00;99.90
57434;DHT22;43277;52.672;6.984;2022-07-29T09:05:33;20.20;99.90
57434;DHT22;43277;52.672;6.984;2022-07-29T09:07:59;20.30;99.90
57434;DHT22;43277;52.672;6.984;2022-07-29T09:10:26;20.40;99.90
57434;DHT22;43277;52.672;6.984;2022-07-29T09:12:52;20.30;99.90
57434;DHT22;43277;52.672;6.984;2022-07-29T09:15:19;20.40;99.90
57434;DHT22;43277;52.672;6.984;2022-07-29T09:17:49;20.30;99.90
57434;DHT22;43277;52.672;6.984;2022-07-29T09:20:17;20.20;99.90
57434;DHT22;43277;52.672;6.984;2022-07-29T09:22:44;20.10;99.90
57434;DHT22;43277;52.672;6.984;2022-07-29T09:25:33;20.00;99.90
57434;DHT22;43277;52.672;6.984;2022-07-29T09:28:13;19.90;99.90
57434;DHT22;43277;52.672;6.984;2022-07-29T09:30:52;19.90;99.90
57434;DHT22;43277;52.672;6.984;2022-07-29T09:33:18;19.80;99.90
57434;DHT22;43277;52.672;6.984;2022-07-29T09:35:44;19.70;99.90
57434;DHT22;43277;52.672;6.984;2022-07-29T09:38:11;19.70;99.90
57434;DHT22;43277;52.672;6.984;2022-07-29T09:40:37;19.70;99.90
57434;DHT22;43277;52.672;6.984;2022-07-29T09:43:10;19.60;99.90
57434;DHT22;43277;52.672;6.984;2022-07-29T09:45:36;19.60;99.90
57434;DHT22;43277;52.672;6.984;2022-07-29T09:48:22;19.60;99.90
57434;DHT22;43277;52.672;6.984;2022-07-29T09:50:48;19.70;99.90
57434;DHT22;43277;52.672;6.984;2022-07-29T09:53:34;19.70;99.90
57434;DHT22;43277;52.672;6.984;2022-07-29T09:56:02;19.60;99.90
57434;DHT22;43277;52.672;6.984;2022-07-29T09:58:28;19.60;99.90
57434;DHT22;43277;52.672;6.984;2022-07-29T10:00:55;19.60;99.90
57434;DHT22;43277;52.672;6.984;2022-07-29T10:03:21;19.60;99.90
57434;DHT22;43277;52.672;6.984;2022-07-29T10:06:08;19.60;99.90
57434;DHT22;43277;52.672;6.984;2022-07-29T10:08:34;19.40;99.90
57434;DHT22;43277;52.672;6.984;2022-07-29T10:11:16;19.40;99.90
57434;DHT22;43277;52.672;6.984;2022-07-29T10:13:44;19.30;99.90
57434;DHT22;43277;52.672;6.984;2022-07-29T10:16:11;19.20;99.90
57434;DHT22;43277;52.672;6.984;2022-07-29T10:18:44;19.10;99.90
57434;DHT22;43277;52.672;6.984;2022-07-29T10:21:10;19.10;99.90
57434;DHT22;43277;52.672;6.984;2022-07-29T10:23:36;19.10;99.90
57434;DHT22;43277;52.672;6.984;2022-07-29T10:26:03;19.10;99.90
57434;DHT22;43277;52.672;6.984;2022-07-29T10:28:30;19.00;99.90
57434;DHT22;43277;52.672;6.984;2022-07-29T10:31:01;19.00;99.90
57434;DHT22;43277;52.672;6.984;2022-07-29T10:33:47;19.00;99.90
57434;DHT22;43277;52.672;6.984;2022-07-29T10:36:44;19.00;99.90
57434;DHT22;43277;52.672;6.984;2022-07-29T10:42:15;19.00;99.90
57434;DHT22;43277;52.672;6.984;2022-07-29T10:44:43;19.10;99.90
57434;DHT22;43277;52.672;6.984;2022-07-29T10:47:23;19.10;99.90
57434;DHT22;43277;52.672;6.984;2022-07-29T10:50:07;19.20;99.90
57434;DHT22;43277;52.672;6.984;2022-07-29T10:53:00;19.20;99.90
57434;DHT22;43277;52.672;6.984;2022-07-29T10:55:35;19.20;99.90
57434;DHT22;43277;52.672;6.984;2022-07-29T10:58:23;19.40;99.90
57434;DHT22;43277;52.672;6.984;2022-07-29T11:00:53;19.40;99.90
57434;DHT22;43277;52.672;6.984;2022-07-29T11:03:45;19.40;99.90
57434;DHT22;43277;52.672;6.984;2022-07-29T11:06:11;19.50;99.90
57434;DHT22;43277;52.672;6.984;2022-07-29T11:08:37;19.60;99.90
57434;DHT22;43277;52.672;6.984;2022-07-29T11:11:30;19.60;99.90
57434;DHT22;43277;52.672;6.984;2022-07-29T11:13:55;19.60;99.90
57434;DHT22;43277;52.672;6.984;2022-07-29T11:16:22;19.60;99.90
57434;DHT22;43277;52.672;6.984;2022-07-29T11:21:40;19.60;99.90
57434;DHT22;43277;52.672;6.984;2022-07-29T11:24:21;19.50;99.90
57434;DHT22;43277;52.672;6.984;2022-07-29T11:27:17;19.60;99.90
57434;DHT22;43277;52.672;6.984;2022-07-29T11:29:50;19.50;99.90
57434;DHT22;43277;52.672;6.984;2022-07-29T11:32:17;19.40;99.90
57434;DHT22;43277;52.672;6.984;2022-07-29T11:34:46;19.50;99.90
57434;DHT22;43277;52.672;6.984;2022-07-29T11:39:42;19.60;99.90
57434;DHT22;43277;52.672;6.984;2022-07-29T11:45:02;19.60;99.90
57434;DHT22;43277;52.672;6.984;2022-07-29T11:47:52;19.70;99.90
57434;DHT22;43277;52.672;6.984;2022-07-29T11:50:31;19.70;99.90
57434;DHT22;43277;52.672;6.984;2022-07-29T11:52:58;19.80;99.90
57434;DHT22;43277;52.672;6.984;2022-07-29T11:55:25;19.70;99.90
57434;DHT22;43277;52.672;6.984;2022-07-29T11:57:56;19.80;99.90
57434;DHT22;43277;52.672;6.984;2022-07-29T12:03:00;19.70;99.90
57434;DHT22;43277;52.672;6.984;2022-07-29T12:05:37;19.70;99.90
57434;DHT22;43277;52.672;6.984;2022-07-29T12:08:07;19.70;99.90
57434;DHT22;43277;52.672;6.984;2022-07-29T12:10:33;19.80;99.90
57434;DHT22;43277;52.672;6.984;2022-07-29T12:12:58;19.80;99.90
57434;DHT22;43277;52.672;6.984;2022-07-29T12:15:24;19.80;99.90
57434;DHT22;43277;52.672;6.984;2022-07-29T12:17:51;19.80;99.90
57434;DHT22;43277;52.672;6.984;2022-07-29T12:20:26;19.90;99.90
57434;DHT22;43277;52.672;6.984;2022-07-29T12:22:52;19.90;99.90
57434;DHT22;43277;52.672;6.984;2022-07-29T12:25:20;20.00;99.90
57434;DHT22;43277;52.672;6.984;2022-07-29T12:27:46;20.00;99.90
57434;DHT22;43277;52.672;6.984;2022-07-29T12:30:14;20.10;99.90
57434;DHT22;43277;52.672;6.984;2022-07-29T12:35:19;20.20;99.90
57434;DHT22;43277;52.672;6.984;2022-07-29T12:37:46;20.30;99.90
57434;DHT22;43277;52.672;6.984;2022-07-29T12:40:15;20.30;99.90
57434;DHT22;43277;52.672;6.984;2022-07-29T12:45:55;20.50;99.90
57434;DHT22;43277;52.672;6.984;2022-07-29T12:48:38;20.60;99.90
57434;DHT22;43277;52.672;6.984;2022-07-29T12:51:05;20.60;99.90
57434;DHT22;43277;52.672;6.984;2022-07-29T12:53:32;20.70;99.90
57434;DHT22;43277;52.672;6.984;2022-07-29T12:55:58;20.80;99.90
57434;DHT22;43277;52.672;6.984;2022-07-29T13:01:09;21.10;99.90
57434;DHT22;43277;52.672;6.984;2022-07-29T13:03:55;21.30;99.90
57434;DHT22;43277;52.672;6.984;2022-07-29T13:06:41;21.50;99.90
57434;DHT22;43277;52.672;6.984;2022-07-29T13:09:10;21.70;99.90
57434;DHT22;43277;52.672;6.984;2022-07-29T13:11:47;21.90;99.90
57434;DHT22;43277;52.672;6.984;2022-07-29T13:14:30;22.10;99.90
57434;DHT22;43277;52.672;6.984;2022-07-29T13:17:03;22.40;99.90
57434;DHT22;43277;52.672;6.984;2022-07-29T13:22:13;23.30;99.90
57434;DHT22;43277;52.672;6.984;2022-07-29T13:25:05;23.80;99.90
57434;DHT22;43277;52.672;6.984;2022-07-29T13:27:35;24.20;96.40
57434;DHT22;43277;52.672;6.984;2022-07-29T13:30:04;24.30;99.90
57434;DHT22;43277;52.672;6.984;2022-07-29T13:32:31;24.30;99.90
57434;DHT22;43277;52.672;6.984;2022-07-29T13:34:59;24.40;99.90
57434;DHT22;43277;52.672;6.984;2022-07-29T13:37:26;24.30;99.90
57434;DHT22;43277;52.672;6.984;2022-07-29T13:39:55;24.30;99.00
57434;DHT22;43277;52.672;6.984;2022-07-29T13:42:23;24.40;99.50
57434;DHT22;43277;52.672;6.984;2022-07-29T13:44:49;24.40;98.80
57434;DHT22;43277;52.672;6.984;2022-07-29T13:47:17;24.50;99.30
57434;DHT22;43277;52.672;6.984;2022-07-29T13:49:43;24.70;97.30
57434;DHT22;43277;52.672;6.984;2022-07-29T13:52:08;25.00;96.70
57434;DHT22;43277;52.672;6.984;2022-07-29T13:54:34;25.30;95.00
57434;DHT22;43277;52.672;6.984;2022-07-29T13:57:03;25.40;95.90
57434;DHT22;43277;52.672;6.984;2022-07-29T13:59:28;25.50;96.60
57434;DHT22;43277;52.672;6.984;2022-07-29T14:01:54;25.60;94.50
57434;DHT22;43277;52.672;6.984;2022-07-29T14:04:20;25.80;94.10
57434;DHT22;43277;52.672;6.984;2022-07-29T14:06:47;26.00;95.20
57434;DHT22;43277;52.672;6.984;2022-07-29T14:09:12;26.30;91.70
57434;DHT22;43277;52.672;6.984;2022-07-29T14:11:38;26.50;93.20
57434;DHT22;43277;52.672;6.984;2022-07-29T14:14:04;26.70;93.90
57434;DHT22;43277;52.672;6.984;2022-07-29T14:16:30;26.80;93.30
57434;DHT22;43277;52.672;6.984;2022-07-29T14:18:55;26.70;90.90
57434;DHT22;43277;52.672;6.984;2022-07-29T14:21:21;26.60;91.40
57434;DHT22;43277;52.672;6.984;2022-07-29T14:23:46;26.40;91.60
57434;DHT22;43277;52.672;6.984;2022-07-29T14:26:13;26.20;92.90
57434;DHT22;43277;52.672;6.984;2022-07-29T14:28:38;26.20;93.60
57434;DHT22;43277;52.672;6.984;2022-07-29T14:31:04;26.30;93.80
57434;DHT22;43277;52.672;6.984;2022-07-29T14:33:30;26.60;93.80
57434;DHT22;43277;52.672;6.984;2022-07-29T14:35:55;26.80;93.40
57434;DHT22;43277;52.672;6.984;2022-07-29T14:38:21;27.00;93.00
57434;DHT22;43277;52.672;6.984;2022-07-29T14:40:46;27.20;91.70
57434;DHT22;43277;52.672;6.984;2022-07-29T14:43:13;27.40;91.30
57434;DHT22;43277;52.672;6.984;2022-07-29T14:45:39;27.60;90.40
57434;DHT22;43277;52.672;6.984;2022-07-29T14:48:05;27.80;90.20
57434;DHT22;43277;52.672;6.984;2022-07-29T14:50:30;28.00;89.60
57434;DHT22;43277;52.672;6.984;2022-07-29T14:52:56;28.30;87.90
57434;DHT22;43277;52.672;6.984;2022-07-29T14:55:22;28.50;88.20
57434;DHT22;43277;52.672;6.984;2022-07-29T14:57:48;28.50;86.40
57434;DHT22;43277;52.672;6.984;2022-07-29T15:00:15;28.70;83.20
57434;DHT22;43277;52.672;6.984;2022-07-29T15:02:41;28.70;84.70
57434;DHT22;43277;52.672;6.984;2022-07-29T15:05:07;28.80;82.90
57434;DHT22;43277;52.672;6.984;2022-07-29T15:07:32;28.90;80.60
57434;DHT22;43277;52.672;6.984;2022-07-29T15:09:58;28.90;80.30
57434;DHT22;43277;52.672;6.984;2022-07-29T15:12:31;28.90;77.30
57434;DHT22;43277;52.672;6.984;2022-07-29T15:15:00;29.00;77.30
57434;DHT22;43277;52.672;6.984;2022-07-29T15:17:26;29.10;73.70
57434;DHT22;43277;52.672;6.984;2022-07-29T15:19:51;29.20;73.70
57434;DHT22;43277;52.672;6.984;2022-07-29T15:22:17;29.40;72.40
57434;DHT22;43277;52.672;6.984;2022-07-29T15:24:43;29.50;73.50
57434;DHT22;43277;52.672;6.984;2022-07-29T15:27:10;29.60;74.70
57434;DHT22;43277;52.672;6.984;2022-07-29T15:29:43;29.80;72.80
57434;DHT22;43277;52.672;6.984;2022-07-29T15:32:09;29.90;71.10
57434;DHT22;43277;52.672;6.984;2022-07-29T15:34:35;30.00;69.50
57434;DHT22;43277;52.672;6.984;2022-07-29T15:37:01;30.30;66.70
57434;DHT22;43277;52.672;6.984;2022-07-29T15:39:26;30.70;64.60
57434;DHT22;43277;52.672;6.984;2022-07-29T15:41:52;31.30;62.10
57434;DHT22;43277;52.672;6.984;2022-07-29T15:44:18;31.60;60.00
57434;DHT22;43277;52.672;6.984;2022-07-29T15:46:44;31.60;60.20
57434;DHT22;43277;52.672;6.984;2022-07-29T15:49:38;31.30;59.50
57434;DHT22;43277;52.672;6.984;2022-07-29T15:52:06;31.30;61.70
57434;DHT22;43277;52.672;6.984;2022-07-29T15:54:32;31.10;59.90
57434;DHT22;43277;52.672;6.984;2022-07-29T15:56:58;31.30;59.90
57434;DHT22;43277;52.672;6.984;2022-07-29T15:59:25;31.70;57.70
57434;DHT22;43277;52.672;6.984;2022-07-29T16:01:51;32.40;55.40
57434;DHT22;43277;52.672;6.984;2022-07-29T16:04:16;33.10;51.20
57434;DHT22;43277;52.672;6.984;2022-07-29T16:06:43;33.60;50.50
57434;DHT22;43277;52.672;6.984;2022-07-29T16:09:09;34.10;50.40
57434;DHT22;43277;52.672;6.984;2022-07-29T16:11:36;34.40;49.70